Time;durP1;ratioP1;P1;durP2;ratioP2;P2;SDS_P1;SDS_P2;PMS_P1;PMS_P2;Temp;Humidity;BMP_temperature;BMP_pressure;BME280_temperature;BME280_humidity;BME280_pressure;Samples;Min_cycle;Max_cycle;Signal;HPM_P1;HPM_P2
2022/06/06 00:00:49;;;;;;;36.40;19.08;;;16.70;99.90;;;;;;4166612;28;20172;-93
2022/06/06 00:02:50;;;;;;;37.67;18.98;;;16.70;99.90;;;;;;4166350;28;20215;-93
2022/06/06 00:04:51;;;;;;;44.00;19.90;;;16.60;99.90;;;;;;4166458;28;20164;-93
2022/06/06 00:06:53;;;;;;;36.10;18.15;;;16.60;99.90;;;;;;4166484;28;20278;-93
2022/06/06 00:08:54;;;;;;;38.55;18.13;;;16.60;99.90;;;;;;4166458;28;20188;-94
2022/06/06 00:10:56;;;;;;;38.25;17.85;;;16.70;99.90;;;;;;4166221;28;20338;-92
2022/06/06 00:12:57;;;;;;;38.05;19.00;;;16.70;99.90;;;;;;4166058;28;20266;-93
2022/06/06 00:14:58;;;;;;;38.13;18.45;;;16.80;99.90;;;;;;4166445;28;20164;-91
2022/06/06 00:16:59;;;;;;;36.25;18.25;;;16.80;99.90;;;;;;4166361;28;20694;-92
2022/06/06 00:18:59;;;;;;;37.58;18.27;;;16.90;99.90;;;;;;4166411;28;20680;-93
2022/06/06 00:21:00;;;;;;;33.10;18.70;;;16.80;99.90;;;;;;4182885;28;20186;-93
2022/06/06 00:23:01;;;;;;;33.42;17.55;;;16.80;99.90;;;;;;4165955;28;20215;-93
2022/06/06 00:25:03;;;;;;;36.72;18.77;;;16.70;99.90;;;;;;4166400;28;20183;-94
2022/06/06 00:27:04;;;;;;;34.22;18.15;;;16.70;99.90;;;;;;4166242;28;20246;-92
2022/06/06 00:29:06;;;;;;;35.58;17.35;;;16.70;99.90;;;;;;4166428;28;20172;-92
2022/06/06 00:35:45;;;;;;;30.25;16.75;;;16.40;99.90;;;;;;4182612;28;20219;-91
2022/06/06 00:37:47;;;;;;;30.80;16.20;;;16.40;99.90;;;;;;4165637;28;20271;-92
2022/06/06 00:39:49;;;;;;;32.05;17.02;;;16.60;99.90;;;;;;4182367;28;20176;-92
2022/06/06 00:41:55;;;;;;;31.48;16.20;;;16.60;99.90;;;;;;4165595;28;20223;-95
2022/06/06 00:44:11;;;;;;;30.80;14.95;;;16.50;99.90;;;;;;4165374;28;20671;-93
2022/06/06 00:46:12;;;;;;;31.63;15.40;;;16.50;99.90;;;;;;4165551;28;20746;-94
2022/06/06 00:48:26;;;;;;;31.38;15.60;;;16.40;99.90;;;;;;4165768;28;20195;-93
2022/06/06 00:50:38;;;;;;;28.75;15.52;;;16.40;99.90;;;;;;4165762;28;20176;-92
2022/06/06 00:52:41;;;;;;;29.98;15.30;;;16.30;99.90;;;;;;4165720;28;20679;-92
2022/06/06 00:54:44;;;;;;;30.17;14.60;;;16.40;99.90;;;;;;4165599;28;20259;-92
2022/06/06 00:56:52;;;;;;;28.60;15.02;;;16.40;99.90;;;;;;4165654;28;20223;-91
2022/06/06 00:58:56;;;;;;;29.80;13.82;;;16.40;99.90;;;;;;4165569;28;20203;-91
2022/06/06 01:00:57;;;;;;;32.67;15.55;;;16.30;99.90;;;;;;4165491;28;20169;-92
2022/06/06 01:03:03;;;;;;;29.38;15.43;;;16.30;99.90;;;;;;4165362;28;20211;-92
2022/06/06 01:05:05;;;;;;;28.48;14.75;;;16.30;99.90;;;;;;4165580;28;20172;-92
2022/06/06 01:07:07;;;;;;;24.85;13.50;;;16.20;99.90;;;;;;4165455;28;20255;-92
2022/06/06 01:09:08;;;;;;;26.17;14.63;;;16.20;99.90;;;;;;4165633;28;20176;-92
2022/06/06 01:11:09;;;;;;;27.52;13.45;;;16.20;99.90;;;;;;4165620;28;20218;-92
2022/06/06 01:13:11;;;;;;;30.63;14.02;;;16.20;99.90;;;;;;4165387;28;20176;-92
2022/06/06 01:15:14;;;;;;;26.73;13.75;;;16.20;99.90;;;;;;4165331;28;20175;-93
2022/06/06 01:17:23;;;;;;;24.52;13.70;;;16.10;99.90;;;;;;4181715;28;20210;-92
2022/06/06 01:20:07;;;;;;;28.17;13.48;;;16.10;99.90;;;;;;4165461;28;20246;-92
2022/06/06 01:22:08;;;;;;;25.30;13.18;;;16.20;99.90;;;;;;4148217;28;20698;-93
2022/06/06 01:24:17;;;;;;;22.60;11.77;;;16.10;99.90;;;;;;4132461;28;20185;-92
2022/06/06 01:26:32;;;;;;;25.20;12.38;;;16.10;99.90;;;;;;4133654;28;20750;-92
2022/06/06 01:28:51;;;;;;;24.85;13.40;;;16.00;99.90;;;;;;4165028;28;20283;-92
2022/06/06 01:30:57;;;;;;;26.95;13.68;;;15.80;99.90;;;;;;4165151;28;20182;-92
2022/06/06 01:33:01;;;;;;;27.48;13.57;;;15.90;99.90;;;;;;4165195;28;20179;-93
2022/06/06 01:35:03;;;;;;;33.03;14.68;;;15.80;99.90;;;;;;4181406;28;20234;-92
2022/06/06 01:37:36;;;;;;;27.67;15.60;;;15.80;99.90;;;;;;4164901;28;20176;-91
2022/06/06 01:39:36;;;;;;;28.70;14.50;;;15.80;99.90;;;;;;4181316;28;20182;-93
2022/06/06 01:41:55;;;;;;;32.08;15.98;;;15.70;99.90;;;;;;4164851;28;20585;-91
2022/06/06 01:44:29;;;;;;;28.80;14.98;;;15.70;99.90;;;;;;4164902;28;20176;-92
2022/06/06 01:46:35;;;;;;;28.92;14.73;;;15.70;99.90;;;;;;4147601;28;20263;-92
2022/06/06 01:48:41;;;;;;;28.33;14.77;;;15.60;99.90;;;;;;4164584;28;20192;-93
2022/06/06 01:53:02;;;;;;;31.60;14.65;;;15.50;99.90;;;;;;4163517;28;20238;-91
2022/06/06 01:55:03;;;;;;;25.70;14.10;;;15.50;99.90;;;;;;4132108;28;20177;-91
2022/06/06 01:57:08;;;;;;;28.30;14.40;;;15.50;99.90;;;;;;4132372;28;20263;-92
2022/06/06 01:59:09;;;;;;;27.48;14.57;;;15.50;99.90;;;;;;4147991;28;20173;-89
2022/06/06 02:01:10;;;;;;;26.17;13.27;;;15.50;99.90;;;;;;4164531;28;20267;-90
2022/06/06 02:03:10;;;;;;;26.60;13.07;;;15.40;99.90;;;;;;4148084;28;20219;-91
2022/06/06 02:05:12;;;;;;;27.30;13.07;;;15.30;99.90;;;;;;4164921;28;20621;-94
2022/06/06 02:07:13;;;;;;;23.75;12.18;;;15.40;99.90;;;;;;4164479;28;20180;-91
2022/06/06 02:09:14;;;;;;;26.95;12.82;;;15.30;99.90;;;;;;4148392;28;20184;-91
2022/06/06 02:11:15;;;;;;;28.27;12.88;;;15.20;99.90;;;;;;4148135;28;20169;-91
2022/06/06 02:13:16;;;;;;;26.08;12.18;;;15.20;99.90;;;;;;4164345;28;20545;-92
2022/06/06 02:15:19;;;;;;;25.65;13.57;;;15.20;99.90;;;;;;4148413;28;20625;-92
2022/06/06 02:17:19;;;;;;;25.90;13.20;;;15.10;99.90;;;;;;4164881;28;20314;-91
2022/06/06 02:19:21;;;;;;;27.67;13.30;;;15.10;99.90;;;;;;4148502;28;20189;-91
2022/06/06 02:21:22;;;;;;;27.63;12.95;;;15.00;99.90;;;;;;4164363;28;20172;-92
2022/06/06 02:23:22;;;;;;;21.38;11.90;;;14.90;99.90;;;;;;4148289;28;20219;-90
2022/06/06 02:25:24;;;;;;;25.58;11.98;;;14.90;99.90;;;;;;4164580;28;20170;-90
2022/06/06 02:27:27;;;;;;;22.98;12.50;;;14.90;99.90;;;;;;4164575;28;20215;-94
2022/06/06 02:29:28;;;;;;;20.80;11.73;;;14.80;99.90;;;;;;4148196;28;20181;-94
2022/06/06 02:31:29;;;;;;;30.27;13.18;;;14.90;99.90;;;;;;4164337;28;20219;-91
2022/06/06 02:33:29;;;;;;;24.02;11.80;;;14.70;99.90;;;;;;4148101;28;20173;-91
2022/06/06 02:35:34;;;;;;;26.63;12.13;;;14.60;99.90;;;;;;4164346;28;20172;-91
2022/06/06 02:37:36;;;;;;;19.02;10.82;;;14.50;99.90;;;;;;4147919;28;20189;-91
2022/06/06 02:39:36;;;;;;;23.40;10.77;;;14.40;99.90;;;;;;4148155;28;20169;-92
2022/06/06 02:41:37;;;;;;;21.20;11.02;;;14.40;99.90;;;;;;4147855;28;20181;-90
2022/06/06 02:43:43;;;;;;;21.38;9.65;;;14.30;99.90;;;;;;4163976;28;20172;-91
2022/06/06 02:45:46;;;;;;;19.35;9.77;;;14.30;99.90;;;;;;4164438;28;20172;-91
2022/06/06 02:47:53;;;;;;;21.13;9.43;;;14.30;99.90;;;;;;4164252;28;20203;-93
2022/06/06 02:49:54;;;;;;;16.83;8.68;;;14.20;99.90;;;;;;4148205;28;20208;-91
2022/06/06 02:51:55;;;;;;;16.17;7.63;;;14.20;99.90;;;;;;4164411;28;20267;-91
2022/06/06 02:53:55;;;;;;;15.98;8.20;;;14.10;99.90;;;;;;4148103;28;20181;-90
2022/06/06 02:55:57;;;;;;;12.82;6.97;;;14.10;99.90;;;;;;4164096;28;20206;-91
2022/06/06 02:58:00;;;;;;;16.10;7.88;;;14.10;99.90;;;;;;4164164;28;20204;-94
2022/06/06 03:00:00;;;;;;;16.73;6.90;;;14.00;99.90;;;;;;4164124;28;20172;-91
2022/06/06 03:02:02;;;;;;;16.85;6.80;;;13.90;99.90;;;;;;4147886;28;20213;-91
2022/06/06 03:04:03;;;;;;;13.88;7.03;;;13.90;99.90;;;;;;4164383;28;20180;-90
2022/06/06 03:06:13;;;;;;;16.05;7.38;;;13.90;99.90;;;;;;4164005;28;20181;-91
2022/06/06 03:08:28;;;;;;;14.38;6.80;;;13.90;99.90;;;;;;4166336;28;20183;-91
2022/06/06 03:10:39;;;;;;;13.55;6.30;;;14.00;99.90;;;;;;4151154;28;20181;-91
2022/06/06 03:12:59;;;;;;;12.30;6.25;;;14.00;99.90;;;;;;4167332;28;20180;-91
2022/06/06 03:15:26;;;;;;;13.68;6.28;;;14.00;99.90;;;;;;4167037;28;20171;-91
2022/06/06 03:23:08;;;;;;;10.95;5.60;;;14.00;99.90;;;;;;4134113;28;20221;-91
2022/06/06 03:25:36;;;;;;;11.02;5.78;;;13.90;99.90;;;;;;4142987;28;20272;-94
2022/06/06 03:27:50;;;;;;;9.88;5.88;;;13.90;99.90;;;;;;4166737;28;20196;-92
2022/06/06 03:30:06;;;;;;;9.52;6.05;;;13.90;99.90;;;;;;4166915;28;20267;-91
2022/06/06 03:32:54;;;;;;;11.85;5.57;;;13.80;99.90;;;;;;4150756;28;20172;-91
2022/06/06 03:35:16;;;;;;;10.13;5.93;;;13.90;99.90;;;;;;4167112;28;20238;-91
2022/06/06 03:37:37;;;;;;;13.68;5.97;;;13.90;99.90;;;;;;4166955;28;20252;-92
2022/06/06 03:39:53;;;;;;;14.13;5.88;;;13.70;99.90;;;;;;4150447;28;20287;-92
2022/06/06 03:42:08;;;;;;;8.40;5.45;;;13.70;99.90;;;;;;4166541;28;20206;-91
2022/06/06 03:44:33;;;;;;;11.70;6.20;;;13.70;99.90;;;;;;4150383;28;20325;-92
2022/06/06 03:46:44;;;;;;;13.43;5.10;;;13.70;99.90;;;;;;4167009;28;20267;-91
2022/06/06 03:49:08;;;;;;;11.27;5.80;;;13.70;99.90;;;;;;4150300;28;20239;-91
2022/06/06 03:51:24;;;;;;;8.52;5.40;;;13.70;99.90;;;;;;4150191;28;20181;-92
2022/06/06 03:54:10;;;;;;;12.38;5.90;;;13.70;99.90;;;;;;4166715;28;20196;-93
2022/06/06 03:56:26;;;;;;;7.80;4.80;;;13.60;99.90;;;;;;4097116;28;20242;-94
2022/06/06 03:58:31;;;;;;;16.05;5.57;;;13.50;99.90;;;;;;4150574;28;20677;-93
2022/06/06 04:00:35;;;;;;;9.15;4.75;;;13.50;99.90;;;;;;4150178;28;20172;-91
2022/06/06 04:02:37;;;;;;;9.35;4.15;;;13.60;99.90;;;;;;4183054;28;20327;-91
2022/06/06 04:04:38;;;;;;;9.80;4.47;;;13.60;99.90;;;;;;4166733;28;20188;-92
2022/06/06 04:06:39;;;;;;;9.30;3.85;;;13.60;99.90;;;;;;4150222;28;20271;-91
2022/06/06 04:08:40;;;;;;;11.20;4.35;;;13.70;99.90;;;;;;4149819;28;20193;-92
2022/06/06 04:11:11;;;;;;;5.85;3.72;;;13.80;99.90;;;;;;4149879;28;20164;-92
2022/06/06 04:13:40;;;;;;;7.55;3.85;;;13.90;99.90;;;;;;4150181;28;20208;-93
2022/06/06 04:15:53;;;;;;;7.85;3.20;;;14.00;99.90;;;;;;4141096;28;20184;-90
2022/06/06 04:18:26;;;;;;;8.88;3.53;;;14.20;99.90;;;;;;4149783;28;20201;-94
2022/06/06 04:20:36;;;;;;;10.60;3.42;;;14.10;99.90;;;;;;4145207;28;20192;-92
2022/06/06 04:22:42;;;;;;;9.68;3.47;;;14.10;99.90;;;;;;4166258;28;20302;-91
2022/06/06 04:25:15;;;;;;;8.07;3.05;;;14.00;99.90;;;;;;4149933;28;20184;-92
2022/06/06 04:27:39;;;;;;;8.75;2.92;;;14.10;99.90;;;;;;4144616;28;20242;-91
2022/06/06 04:29:49;;;;;;;7.07;2.95;;;14.10;99.90;;;;;;4149619;28;20541;-92
2022/06/06 04:32:19;;;;;;;7.25;2.85;;;14.20;99.90;;;;;;4149607;28;20211;-91
2022/06/06 04:34:57;;;;;;;6.72;2.90;;;14.10;99.90;;;;;;4149606;28;20176;-91
2022/06/06 04:37:07;;;;;;;8.80;2.72;;;14.20;99.90;;;;;;4096311;28;20279;-91
2022/06/06 04:39:32;;;;;;;8.13;2.88;;;14.20;99.90;;;;;;4166004;28;20187;-91
2022/06/06 04:41:55;;;;;;;8.10;2.90;;;14.30;99.90;;;;;;4149099;28;20514;-91
2022/06/06 04:44:12;;;;;;;5.38;2.80;;;14.30;99.90;;;;;;4166027;28;20224;-92
2022/06/06 04:46:38;;;;;;;4.38;2.60;;;14.40;99.90;;;;;;4149544;28;20169;-91
2022/06/06 04:48:40;;;;;;;5.07;2.55;;;14.50;99.90;;;;;;4165937;28;20192;-90
2022/06/06 04:50:43;;;;;;;5.90;2.60;;;14.50;99.90;;;;;;4165528;28;20175;-91
2022/06/06 04:52:51;;;;;;;7.10;2.67;;;14.50;99.90;;;;;;4165542;28;20188;-90
2022/06/06 04:54:54;;;;;;;6.50;2.17;;;14.50;99.90;;;;;;4165562;28;20587;-90
2022/06/06 04:56:55;;;;;;;7.63;2.45;;;14.60;99.90;;;;;;4165465;28;20191;-91
2022/06/06 04:59:00;;;;;;;4.25;2.20;;;14.60;99.90;;;;;;4148991;28;20196;-90
2022/06/06 05:01:02;;;;;;;6.65;2.33;;;14.40;99.90;;;;;;4149300;28;20196;-92
2022/06/06 05:03:04;;;;;;;5.10;2.30;;;14.40;99.90;;;;;;4165521;28;20220;-92
2022/06/06 05:05:05;;;;;;;6.93;2.03;;;14.40;99.90;;;;;;4149317;28;20165;-93
2022/06/06 05:07:25;;;;;;;4.93;2.05;;;14.40;99.90;;;;;;4165619;28;20210;-91
2022/06/06 05:09:51;;;;;;;6.95;2.58;;;14.50;99.90;;;;;;4149319;28;20234;-91
2022/06/06 05:12:04;;;;;;;4.70;2.40;;;14.50;99.90;;;;;;4149116;28;20510;-92
2022/06/06 05:14:44;;;;;;;7.47;2.47;;;14.60;99.90;;;;;;4149131;28;20176;-95
2022/06/06 05:17:03;;;;;;;6.97;2.45;;;14.70;99.90;;;;;;4165332;28;20536;-91
2022/06/06 05:19:25;;;;;;;6.95;2.45;;;14.80;99.90;;;;;;4165512;28;20172;-91
2022/06/06 05:22:01;;;;;;;3.63;2.33;;;14.80;99.90;;;;;;4148961;28;20185;-93
2022/06/06 05:24:16;;;;;;;5.47;2.67;;;14.80;99.90;;;;;;4096070;28;20192;-91
2022/06/06 05:26:29;;;;;;;4.35;2.55;;;14.80;99.90;;;;;;4148919;28;20169;-92
2022/06/06 05:29:00;;;;;;;6.47;2.55;;;15.00;99.90;;;;;;4148430;28;20201;-92
2022/06/06 05:31:25;;;;;;;4.38;2.33;;;15.10;99.90;;;;;;4164564;28;20187;-91
2022/06/06 05:33:34;;;;;;;7.80;2.28;;;15.20;99.90;;;;;;4165445;28;20230;-92
2022/06/06 05:35:55;;;;;;;5.63;2.33;;;15.20;99.90;;;;;;4148800;28;20219;-92
2022/06/06 05:38:22;;;;;;;4.25;1.85;;;15.50;99.90;;;;;;4148440;28;20227;-92
2022/06/06 05:40:23;;;;;;;6.85;2.50;;;15.60;99.90;;;;;;4164776;28;20176;-90
2022/06/06 05:42:57;;;;;;;4.68;1.92;;;15.60;99.90;;;;;;4149172;28;20216;-91
2022/06/06 05:45:00;;;;;;;5.30;2.22;;;15.40;99.90;;;;;;4165020;28;20245;-91
2022/06/06 05:47:11;;;;;;;8.38;2.38;;;15.50;99.90;;;;;;4164916;28;20168;-91
2022/06/06 05:49:27;;;;;;;3.45;1.98;;;15.60;99.90;;;;;;4181441;28;20603;-91
2022/06/06 05:52:02;;;;;;;5.32;2.30;;;15.70;99.90;;;;;;4165154;28;20187;-91
2022/06/06 05:54:16;;;;;;;4.82;2.13;;;15.60;99.90;;;;;;4138290;28;20188;-91
2022/06/06 05:56:27;;;;;;;7.78;2.65;;;15.90;99.90;;;;;;4148620;28;20176;-91
2022/06/06 05:58:47;;;;;;;8.65;2.22;;;16.00;99.90;;;;;;4148468;28;20196;-92
2022/06/06 06:01:21;;;;;;;6.28;2.30;;;16.00;99.90;;;;;;4164916;28;20179;-91
2022/06/06 06:03:53;;;;;;;5.07;2.08;;;16.00;99.90;;;;;;4148643;28;20299;-91
2022/06/06 06:05:59;;;;;;;5.10;1.80;;;16.20;99.90;;;;;;4160254;28;20188;-91
2022/06/06 06:08:00;;;;;;;7.25;1.83;;;16.20;99.90;;;;;;4148251;28;20612;-93
2022/06/06 06:10:25;;;;;;;4.82;1.88;;;16.30;99.90;;;;;;4148215;28;20173;-92
2022/06/06 06:12:58;;;;;;;3.42;1.83;;;16.30;99.90;;;;;;4164598;28;20620;-91
2022/06/06 06:15:26;;;;;;;3.03;1.50;;;16.50;99.90;;;;;;4131084;28;20511;-92
2022/06/06 06:17:28;;;;;;;4.43;1.63;;;16.50;99.90;;;;;;4148334;28;20196;-92
2022/06/06 06:20:04;;;;;;;4.60;1.48;;;16.50;99.90;;;;;;4148310;28;20227;-91
2022/06/06 06:22:07;;;;;;;7.43;1.65;;;16.60;99.90;;;;;;4161813;28;20277;-93
2022/06/06 06:24:11;;;;;;;3.78;1.60;;;16.60;99.90;;;;;;4147916;28;20181;-91
2022/06/06 06:26:13;;;;;;;3.05;1.30;;;16.60;99.90;;;;;;4164566;28;20196;-92
2022/06/06 06:28:14;;;;;;;6.10;1.50;;;16.50;99.90;;;;;;4164602;28;20196;-94
2022/06/06 06:30:15;;;;;;;7.50;1.50;;;16.60;99.90;;;;;;4164613;28;20263;-92
2022/06/06 06:32:23;;;;;;;2.30;1.20;;;16.90;99.90;;;;;;4164481;28;20214;-92
2022/06/06 06:35:07;;;;;;;3.03;1.50;;;17.00;99.90;;;;;;4148153;28;20168;-91
2022/06/06 06:37:44;;;;;;;9.80;1.50;;;17.20;99.90;;;;;;4116662;28;20216;-93
2022/06/06 06:40:02;;;;;;;2.10;1.10;;;17.00;99.90;;;;;;4164396;28;20238;-92
2022/06/06 06:42:21;;;;;;;4.85;1.45;;;17.20;99.90;;;;;;4164349;28;20251;-92
2022/06/06 06:46:59;;;;;;;3.75;1.70;;;17.40;99.90;;;;;;4142498;28;20688;-91
2022/06/06 06:49:35;;;;;;;3.05;1.33;;;17.40;99.90;;;;;;4151263;28;20560;-93
2022/06/06 06:52:13;;;;;;;5.18;1.85;;;17.50;99.90;;;;;;4151183;28;20184;-92
2022/06/06 06:54:30;;;;;;;9.38;2.00;;;17.60;99.90;;;;;;4149981;28;20290;-92
2022/06/06 06:57:01;;;;;;;4.15;1.98;;;17.80;99.90;;;;;;4151464;28;20236;-91
2022/06/06 06:59:07;;;;;;;4.80;2.30;;;17.80;99.90;;;;;;4151210;28;20736;-93
2022/06/06 07:01:12;;;;;;;4.65;1.90;;;18.30;99.90;;;;;;4151152;28;20267;-92
2022/06/06 07:08:37;;;;;;;4.65;2.25;;;19.00;99.90;;;;;;4183768;28;20296;-91
2022/06/06 07:10:56;;;;;;;4.90;2.47;;;18.70;99.90;;;;;;4150930;28;20177;-92
2022/06/06 07:13:21;;;;;;;7.65;2.70;;;18.60;99.90;;;;;;4166958;28;20532;-90
2022/06/06 07:15:44;;;;;;;6.55;3.00;;;18.50;99.90;;;;;;4167136;28;20168;-92
2022/06/06 07:17:50;;;;;;;8.75;2.83;;;18.40;99.90;;;;;;4167164;28;20192;-91
2022/06/06 07:19:53;;;;;;;6.60;2.58;;;18.40;99.90;;;;;;4167062;28;20258;-91
2022/06/06 07:21:56;;;;;;;4.95;2.88;;;18.40;99.90;;;;;;4150861;28;20208;-92
2022/06/06 07:24:00;;;;;;;4.18;2.45;;;18.50;99.90;;;;;;4150900;28;20180;-91
2022/06/06 07:26:03;;;;;;;4.40;2.30;;;18.80;99.90;;;;;;4167136;28;20168;-91
2022/06/06 07:28:10;;;;;;;5.00;2.50;;;19.40;99.90;;;;;;4166739;28;20246;-91
2022/06/06 07:30:11;;;;;;;3.60;2.13;;;19.90;99.90;;;;;;4167053;28;20303;-93
2022/06/06 07:32:32;;;;;;;5.05;2.00;;;20.00;99.90;;;;;;4167083;28;20572;-94
2022/06/06 07:34:50;;;;;;;5.07;2.40;;;20.00;99.90;;;;;;4166904;28;20190;-90
2022/06/06 07:37:18;;;;;;;4.40;1.83;;;19.70;99.90;;;;;;4150576;28;20189;-91
2022/06/06 07:39:48;;;;;;;5.13;2.22;;;19.20;99.90;;;;;;4166700;28;20267;-92
2022/06/06 07:42:25;;;;;;;3.72;1.83;;;19.20;99.90;;;;;;4167075;28;20180;-90
2022/06/06 07:44:55;;;;;;;5.07;1.90;;;19.90;99.90;;;;;;4150549;28;20180;-92
2022/06/06 07:47:05;;;;;;;3.58;1.75;;;20.40;99.90;;;;;;4166897;28;20187;-92
2022/06/06 07:49:15;;;;;;;2.38;1.20;;;21.10;99.90;;;;;;4166889;28;20168;-92
2022/06/06 07:51:26;;;;;;;3.72;1.50;;;22.50;99.90;;;;;;4150495;28;20593;-91
2022/06/06 07:53:53;;;;;;;3.40;1.42;;;23.50;99.90;;;;;;4166221;28;20271;-91
2022/06/06 07:56:00;;;;;;;6.90;1.30;;;24.80;99.90;;;;;;4166672;28;20536;-93
2022/06/06 07:58:21;;;;;;;4.45;1.40;;;24.90;99.90;;;;;;4150381;28;20197;-93
2022/06/06 08:00:26;;;;;;;4.30;1.33;;;23.70;99.90;;;;;;4166471;28;20204;-94
2022/06/06 08:02:52;;;;;;;3.67;1.52;;;23.10;99.90;;;;;;4166625;28;20831;-91
2022/06/06 08:05:22;;;;;;;2.55;1.33;;;22.10;99.90;;;;;;4150219;28;20215;-93
2022/06/06 08:08:02;;;;;;;5.85;1.50;;;22.20;99.90;;;;;;4166563;28;20200;-89
2022/06/06 08:10:25;;;;;;;6.07;1.60;;;22.60;99.90;;;;;;4149798;28;20188;-91
2022/06/06 08:12:55;;;;;;;4.20;1.50;;;21.80;99.90;;;;;;4166534;28;20553;-90
2022/06/06 08:15:08;;;;;;;2.83;1.30;;;22.10;99.90;;;;;;4166279;28;20176;-88
2022/06/06 08:17:37;;;;;;;4.82;1.50;;;22.90;99.90;;;;;;4166156;28;20280;-90
2022/06/06 08:19:50;;;;;;;3.08;1.10;;;23.30;99.90;;;;;;4085159;29;20191;-89
2022/06/06 08:21:51;;;;;;;2.53;1.13;;;23.60;99.90;;;;;;4149775;28;20165;-90
2022/06/06 08:23:56;;;;;;;6.70;1.40;;;24.20;99.90;;;;;;4166354;28;21449;-90
2022/06/06 08:25:57;;;;;;;3.22;0.90;;;24.50;99.90;;;;;;4149963;28;20601;-93
2022/06/06 08:28:01;;;;;;;5.88;1.20;;;24.90;99.90;;;;;;4149847;28;20595;-93
2022/06/06 08:30:04;;;;;;;4.63;0.93;;;25.00;99.90;;;;;;4149841;28;20177;-92
2022/06/06 08:32:05;;;;;;;5.47;1.00;;;24.70;99.90;;;;;;4149539;28;20177;-91
2022/06/06 08:34:06;;;;;;;1.85;1.10;;;24.90;99.90;;;;;;4166248;28;20223;-91
2022/06/06 08:36:25;;;;;;;3.00;0.93;;;24.20;99.90;;;;;;4166270;28;20176;-90
2022/06/06 08:38:52;;;;;;;5.65;1.00;;;23.40;99.90;;;;;;4166260;28;20260;-90
2022/06/06 08:41:05;;;;;;;2.70;0.88;;;23.50;99.90;;;;;;4149773;28;20180;-90
2022/06/06 08:43:22;;;;;;;4.18;0.88;;;22.80;99.90;;;;;;4182305;28;20637;-89
2022/06/06 08:45:52;;;;;;;3.70;1.10;;;21.90;99.90;;;;;;4166086;28;20176;-89
2022/06/06 08:47:55;;;;;;;5.18;0.90;;;21.80;99.90;;;;;;4165809;28;20243;-89
2022/06/06 08:52:42;;;;;;;4.03;1.23;;;21.90;99.90;;;;;;4182263;28;20187;-90
2022/06/06 08:55:15;;;;;;;4.13;1.10;;;22.00;99.90;;;;;;4149289;28;20185;-90
2022/06/06 08:57:23;;;;;;;7.80;0.90;;;21.90;99.90;;;;;;4127964;28;20185;-89
2022/06/06 08:59:50;;;;;;;3.25;0.95;;;21.80;99.90;;;;;;4183207;28;20753;-89
2022/06/06 09:02:06;;;;;;;2.40;0.65;;;22.10;99.90;;;;;;4160096;28;20181;-92
2022/06/06 09:04:21;;;;;;;5.18;0.70;;;23.00;99.90;;;;;;4149098;28;20180;-88
2022/06/06 09:06:56;;;;;;;2.42;0.50;;;23.50;99.90;;;;;;4164955;28;20179;-95
2022/06/06 09:09:18;;;;;;;2.13;0.73;;;23.00;99.90;;;;;;4166086;28;20243;-89
2022/06/06 09:11:38;;;;;;;3.35;0.70;;;22.40;99.90;;;;;;4149078;28;20692;-89
2022/06/06 09:14:01;;;;;;;1.75;0.60;;;21.80;99.90;;;;;;4165506;28;20245;-89
2022/06/06 09:16:32;;;;;;;2.35;0.50;;;20.90;99.90;;;;;;4149269;28;20683;-89
2022/06/06 09:18:39;;;;;;;5.15;0.77;;;20.40;99.90;;;;;;4165614;28;20668;-90
2022/06/06 09:20:50;;;;;;;3.25;0.75;;;20.70;99.90;;;;;;4149264;28;20606;-90
2022/06/06 09:23:35;;;;;;;2.30;0.45;;;21.70;99.90;;;;;;4182007;28;20214;-90
2022/06/06 09:25:38;;;;;;;6.15;0.50;;;22.50;99.90;;;;;;4112237;28;20188;-91
2022/06/06 09:28:22;;;;;;;4.32;0.50;;;22.60;99.90;;;;;;4165492;28;20196;-92
2022/06/06 09:30:41;;;;;;;2.50;0.50;;;23.20;99.90;;;;;;4129053;28;20197;-89
2022/06/06 09:33:16;;;;;;;0.98;0.52;;;23.60;99.90;;;;;;4166751;28;20164;-90
2022/06/06 09:35:41;;;;;;;7.22;1.60;;;24.30;99.90;;;;;;4166932;28;20187;-90
2022/06/06 09:38:09;;;;;;;2.97;0.60;;;24.30;99.90;;;;;;4148634;28;20200;-90
2022/06/06 09:40:34;;;;;;;1.52;0.45;;;24.60;99.90;;;;;;4165268;28;20176;-89
2022/06/06 09:42:37;;;;;;;2.30;0.60;;;25.10;99.90;;;;;;4148639;28;20300;-95
2022/06/06 09:45:11;;;;;;;3.50;0.63;;;25.30;99.90;;;;;;4148709;28;20235;-89
2022/06/06 09:47:33;;;;;;;2.05;0.60;;;25.00;99.90;;;;;;4164981;28;20187;-89
2022/06/06 09:49:52;;;;;;;6.03;0.90;;;24.30;99.90;;;;;;4148399;28;20172;-89
2022/06/06 09:51:55;;;;;;;1.13;0.50;;;23.50;99.90;;;;;;4148436;28;20199;-90
2022/06/06 10:00:10;;;;;;;7.78;1.00;;;25.10;99.90;;;;;;4181221;28;20179;-90
2022/06/06 10:02:37;;;;;;;1.85;0.60;;;25.40;99.90;;;;;;4148457;28;20208;-90
2022/06/06 10:04:55;;;;;;;6.30;0.50;;;24.40;99.90;;;;;;4148460;28;20629;-90
2022/06/06 10:07:03;;;;;;;2.78;0.65;;;24.00;99.90;;;;;;4164529;28;20625;-90
2022/06/06 10:09:26;;;;;;;1.70;0.57;;;23.40;99.90;;;;;;4148320;28;20211;-90
2022/06/06 10:11:59;;;;;;;2.30;0.60;;;23.50;99.90;;;;;;4164792;28;20183;-91
2022/06/06 10:14:14;;;;;;;4.85;0.60;;;23.60;99.90;;;;;;4148345;28;20181;-90
2022/06/06 10:16:38;;;;;;;3.67;0.52;;;23.10;99.90;;;;;;4148277;28;20200;-89
2022/06/06 10:19:16;;;;;;;2.08;0.60;;;23.10;99.90;;;;;;4156542;28;20576;-91
2022/06/06 10:21:43;;;;;;;6.38;0.60;;;23.30;99.90;;;;;;4151690;28;20673;-89
2022/06/06 10:24:05;;;;;;;2.10;0.60;;;23.10;99.90;;;;;;4164558;28;20208;-92
2022/06/06 10:26:34;;;;;;;1.80;0.60;;;22.70;99.90;;;;;;4164809;28;20180;-91
2022/06/06 10:28:49;;;;;;;4.70;0.80;;;22.20;99.90;;;;;;4136032;28;20208;-90
2022/06/06 10:31:10;;;;;;;3.25;0.70;;;21.60;99.90;;;;;;4148445;28;20187;-91
2022/06/06 10:33:10;;;;;;;2.92;0.50;;;21.20;99.90;;;;;;4164280;28;20168;-92
2022/06/06 10:35:20;;;;;;;2.83;0.50;;;20.90;99.90;;;;;;4148142;28;20179;-90
2022/06/06 10:37:24;;;;;;;3.00;0.40;;;20.30;99.90;;;;;;4164373;28;20187;-91
2022/06/06 10:39:33;;;;;;;2.90;0.50;;;19.50;99.90;;;;;;4148118;28;20621;-92
2022/06/06 10:42:10;;;;;;;2.50;0.60;;;19.30;99.90;;;;;;4148300;28;20343;-90
2022/06/06 10:44:52;;;;;;;2.90;0.60;;;19.10;99.90;;;;;;4164774;28;20261;-91
2022/06/06 10:47:19;;;;;;;2.33;0.50;;;19.50;99.90;;;;;;4099651;29;20183;-94
2022/06/06 10:49:39;;;;;;;3.63;0.68;;;20.10;99.90;;;;;;4115613;28;20178;-92
2022/06/06 10:52:00;;;;;;;4.45;0.60;;;20.70;99.90;;;;;;4114219;28;20208;-91
2022/06/06 10:54:11;;;;;;;2.53;0.70;;;21.60;99.90;;;;;;4148093;28;20173;-93
2022/06/06 10:56:45;;;;;;;7.13;0.63;;;21.60;99.90;;;;;;4164275;28;20275;-92
2022/06/06 10:59:20;;;;;;;4.05;0.60;;;21.90;99.90;;;;;;4147953;28;20208;-92
2022/06/06 11:01:46;;;;;;;5.78;0.90;;;21.60;99.90;;;;;;4164322;28;20179;-92
2022/06/06 11:03:50;;;;;;;2.88;0.40;;;21.60;99.90;;;;;;4147888;28;20247;-92
2022/06/06 11:06:31;;;;;;;2.08;0.50;;;21.80;99.90;;;;;;4148492;28;20260;-90
2022/06/06 11:08:37;;;;;;;4.43;0.50;;;22.20;99.90;;;;;;4164198;28;20258;-90
2022/06/06 11:10:50;;;;;;;8.23;0.82;;;21.90;99.90;;;;;;4148148;28;20649;-90
2022/06/06 11:13:11;;;;;;;1.77;0.47;;;21.70;99.90;;;;;;4147879;28;20177;-92
2022/06/06 11:15:11;;;;;;;2.20;0.50;;;21.50;99.90;;;;;;4164420;28;20292;-91
2022/06/06 11:17:57;;;;;;;2.05;0.88;;;21.20;99.90;;;;;;4164103;28;20172;-92
2022/06/06 11:20:07;;;;;;;2.67;0.65;;;21.20;99.90;;;;;;4147981;28;20631;-89
2022/06/06 11:22:32;;;;;;;3.80;0.47;;;21.30;99.90;;;;;;4181751;28;20277;-92
2022/06/06 11:24:40;;;;;;;1.98;0.40;;;21.00;99.90;;;;;;4164207;28;20184;-89
2022/06/06 11:27:05;;;;;;;3.97;0.47;;;20.70;99.90;;;;;;4147649;28;20231;-92
2022/06/06 11:29:43;;;;;;;3.25;0.50;;;20.80;99.90;;;;;;4165017;28;20207;-91
2022/06/06 11:32:08;;;;;;;5.15;0.73;;;20.50;99.90;;;;;;4167351;28;20172;-93
2022/06/06 11:34:50;;;;;;;4.30;0.57;;;20.30;99.90;;;;;;4151015;28;20215;-90
2022/06/06 11:36:59;;;;;;;1.40;0.50;;;20.30;99.90;;;;;;4070778;29;20181;-90
2022/06/06 11:39:17;;;;;;;2.10;0.40;;;20.20;99.90;;;;;;4135592;28;20664;-93
2022/06/06 11:41:51;;;;;;;4.07;0.55;;;20.30;99.90;;;;;;4166966;28;20180;-90
2022/06/06 11:44:08;;;;;;;8.18;0.70;;;20.50;99.90;;;;;;4183410;28;20190;-92
2022/06/06 11:46:29;;;;;;;3.60;0.50;;;20.30;99.90;;;;;;4183468;28;20654;-90
2022/06/06 11:48:59;;;;;;;0.85;0.57;;;20.20;99.90;;;;;;4183458;28;20187;-91
2022/06/06 11:51:17;;;;;;;2.35;0.45;;;20.00;99.90;;;;;;4166932;28;20176;-91
2022/06/06 11:53:45;;;;;;;3.38;0.38;;;20.10;99.90;;;;;;4150527;28;20180;-92
2022/06/06 11:56:18;;;;;;;7.65;0.85;;;20.10;99.90;;;;;;4166726;28;20174;-92
2022/06/06 11:58:52;;;;;;;3.72;0.50;;;20.20;99.90;;;;;;4166322;28;20199;-91
2022/06/06 12:01:15;;;;;;;2.90;0.60;;;20.30;99.90;;;;;;4185611;28;20179;-91
2022/06/06 12:03:37;;;;;;;3.00;0.50;;;20.30;99.90;;;;;;4151129;28;20216;-91